createdAt,value
2023-03-31T00:00:24.025Z,82958.53
2023-03-31T00:03:27.857Z,82955.38
2023-03-31T00:06:32.357Z,82967.25
2023-03-31T00:09:35.940Z,82974.37
2023-03-31T00:12:38.590Z,82975.97
2023-03-31T00:15:41.344Z,82971.28
2023-03-31T00:18:51.235Z,82960.16
2023-03-31T00:21:54.632Z,82950.81
2023-03-31T00:24:57.064Z,82938.72
2023-03-31T00:28:00.032Z,82922.09
2023-03-31T00:31:05.320Z,82911.81
2023-03-31T00:34:08.266Z,82901.59
2023-03-31T00:37:15.993Z,82903.06
2023-03-31T00:40:19.471Z,82896.75
2023-03-31T00:43:32.497Z,82901.53
2023-03-31T00:46:49.726Z,82903.06
2023-03-31T00:49:57.150Z,82910.97
2023-03-31T00:53:07.204Z,82909.44
2023-03-31T00:56:14.930Z,82911.16
2023-03-31T00:59:17.995Z,82911.06
2023-03-31T01:02:25.685Z,82908.66
2023-03-31T01:05:37.275Z,82912.63
2023-03-31T01:08:41.430Z,82907.25
2023-03-31T01:11:46.483Z,82916.62
2023-03-31T01:14:50.971Z,82911.13
2023-03-31T01:17:55.992Z,82909.62
2023-03-31T01:21:33.289Z,82911.88
2023-03-31T01:24:51.957Z,82912.69
2023-03-31T01:27:59.581Z,82916.66
2023-03-31T01:31:35.974Z,82923.78
2023-03-31T01:35:02.864Z,82923.00
2023-03-31T01:38:42.985Z,82927.00
2023-03-31T01:42:15.295Z,82933.28
2023-03-31T01:45:36.828Z,82935.00
2023-03-31T01:49:02.279Z,82944.34
2023-03-31T01:52:11.007Z,82942.84
2023-03-31T01:55:20.886Z,82938.09
2023-03-31T01:58:33.025Z,82942.06
2023-03-31T02:01:42.624Z,82942.87
2023-03-31T02:05:01.370Z,82946.00
2023-03-31T02:08:12.254Z,82950.06
2023-03-31T02:11:15.542Z,82959.47
2023-03-31T02:14:23.723Z,82963.47
2023-03-31T02:17:33.076Z,82964.31
2023-03-31T02:20:35.873Z,82961.88
2023-03-31T02:23:38.814Z,82961.91
2023-03-31T02:27:06.642Z,82960.31
2023-03-31T02:30:11.089Z,82964.28
2023-03-31T02:33:14.081Z,82970.59
2023-03-31T02:36:17.637Z,82976.25
2023-03-31T02:39:25.851Z,82984.09
2023-03-31T02:42:29.350Z,82977.00
2023-03-31T02:45:41.934Z,82975.50
2023-03-31T02:48:52.818Z,82982.53
2023-03-31T02:52:26.785Z,82976.31
2023-03-31T02:55:38.457Z,82975.44
2023-03-31T02:58:53.393Z,82987.28
2023-03-31T03:02:09.024Z,82985.72
2023-03-31T03:05:39.816Z,82985.75
2023-03-31T03:08:55.756Z,82990.53
2023-03-31T03:12:11.283Z,82996.91
2023-03-31T03:15:21.470Z,82998.44
2023-03-31T03:18:24.576Z,82996.81
2023-03-31T03:21:28.043Z,82995.22
2023-03-31T03:24:34.487Z,82993.75
2023-03-31T03:27:37.700Z,82985.84
2023-03-31T03:30:41.181Z,82993.62
2023-03-31T03:33:43.757Z,82985.00
2023-03-31T03:36:47.122Z,82990.50
2023-03-31T03:39:49.575Z,82992.12
2023-03-31T03:42:52.376Z,82998.44
2023-03-31T03:45:54.848Z,82993.69
2023-03-31T03:48:57.668Z,82998.41
2023-03-31T03:52:00.151Z,83000.09
2023-03-31T03:55:03.087Z,82996.94
2023-03-31T03:58:05.796Z,82995.34
2023-03-31T04:01:08.456Z,82999.28
2023-03-31T04:04:11.131Z,83003.16
2023-03-31T04:07:13.562Z,83004.75
2023-03-31T04:10:16.304Z,83011.09
2023-03-31T04:13:20.208Z,83005.59
2023-03-31T04:16:26.083Z,83008.03
2023-03-31T04:19:28.596Z,83003.19
2023-03-31T04:22:35.489Z,83001.59
2023-03-31T04:25:38.691Z,83003.28
2023-03-31T04:28:42.994Z,83003.19
2023-03-31T04:31:45.636Z,83011.09
2023-03-31T04:34:50.724Z,83011.09
2023-03-31T04:38:02.864Z,83009.50
2023-03-31T04:41:07.848Z,83002.44
2023-03-31T04:44:10.408Z,82998.50
2023-03-31T04:47:13.050Z,82995.31
2023-03-31T04:50:17.177Z,82997.78
2023-03-31T04:53:19.961Z,83001.59
2023-03-31T04:56:23.000Z,83004.09
2023-03-31T04:59:25.732Z,83011.13
2023-03-31T05:02:28.101Z,83001.59
2023-03-31T05:05:31.140Z,82990.59
2023-03-31T05:08:34.211Z,82990.53
2023-03-31T05:11:38.385Z,82987.41
2023-03-31T05:14:41.066Z,82986.59
2023-03-31T05:17:43.967Z,82981.03
2023-03-31T05:20:46.502Z,82975.50
2023-03-31T05:23:49.385Z,82978.78
2023-03-31T05:26:53.073Z,82977.97
2023-03-31T05:29:56.047Z,82971.56
2023-03-31T05:32:58.535Z,82966.94
2023-03-31T05:36:01.311Z,82965.22
2023-03-31T05:39:05.315Z,82960.44
2023-03-31T05:42:08.087Z,82954.19
2023-03-31T05:45:11.360Z,82941.38
2023-03-31T05:48:14.099Z,82927.22
2023-03-31T05:51:17.461Z,82910.56
2023-03-31T05:54:20.231Z,82885.88
2023-03-31T05:57:22.619Z,82868.44
2023-03-31T06:00:26.269Z,82858.87
2023-03-31T06:03:29.107Z,82836.69
2023-03-31T06:06:34.692Z,82823.97
2023-03-31T06:09:38.388Z,82816.19
2023-03-31T06:12:40.832Z,82801.78
2023-03-31T06:15:43.629Z,82799.41
2023-03-31T06:18:46.562Z,82795.53
2023-03-31T06:21:49.562Z,82784.31
2023-03-31T06:24:51.973Z,82777.94
2023-03-31T06:27:54.690Z,82769.97
2023-03-31T06:31:18.967Z,82758.84
2023-03-31T06:34:22.476Z,82741.53
2023-03-31T06:37:24.897Z,82727.22
2023-03-31T06:40:27.705Z,82711.19
2023-03-31T06:43:30.206Z,82612.59
2023-03-31T06:46:33.054Z,82508.47
2023-03-31T06:49:35.547Z,82464.53
2023-03-31T06:52:38.338Z,82424.72
2023-03-31T06:55:40.975Z,82390.62
2023-03-31T06:58:43.907Z,82321.13
2023-03-31T07:01:48.814Z,82274.84
2023-03-31T07:04:51.840Z,82218.97
2023-03-31T07:07:58.721Z,82167.91
2023-03-31T07:11:02.188Z,82142.28
2023-03-31T07:14:06.083Z,82110.31
2023-03-31T07:17:09.867Z,82038.38
2023-03-31T07:20:18.285Z,82014.38
2023-03-31T07:23:21.739Z,81960.00
2023-03-31T07:26:24.429Z,81927.47
2023-03-31T07:29:27.266Z,81880.09
2023-03-31T07:32:29.736Z,81881.72
2023-03-31T07:35:32.548Z,82072.97
2023-03-31T07:38:35.882Z,82027.63
2023-03-31T07:41:39.110Z,82051.41
2023-03-31T07:44:41.724Z,82021.09
2023-03-31T07:47:46.501Z,82049.88
2023-03-31T07:50:49.197Z,82035.53
2023-03-31T07:53:53.002Z,81957.22
2023-03-31T07:56:55.606Z,81904.38
2023-03-31T07:59:58.367Z,81827.59
2023-03-31T08:03:00.883Z,81846.81
2023-03-31T08:06:03.946Z,81868.44
2023-03-31T08:09:09.616Z,81888.41
2023-03-31T08:12:12.842Z,81883.63
2023-03-31T08:15:15.677Z,81854.84
2023-03-31T08:18:18.897Z,81819.69
2023-03-31T08:21:24.793Z,81807.72
2023-03-31T08:24:27.806Z,81765.28
2023-03-31T08:27:34.638Z,81830.25
2023-03-31T08:30:39.250Z,81789.34
2023-03-31T08:33:41.989Z,81771.78
2023-03-31T08:36:44.629Z,81768.81
2023-03-31T08:39:48.284Z,81895.41
2023-03-31T08:42:54.089Z,81799.22
2023-03-31T08:45:56.889Z,81938.53
2023-03-31T08:49:01.305Z,81917.75
2023-03-31T08:52:07.817Z,81816.94
2023-03-31T08:55:24.393Z,81749.78
2023-03-31T08:58:42.331Z,81679.53
2023-03-31T09:01:55.754Z,81623.25
2023-03-31T09:05:28.386Z,81581.84
2023-03-31T09:08:37.721Z,81632.84
2023-03-31T09:11:48.192Z,81602.72
2023-03-31T09:15:02.292Z,81559.94
2023-03-31T09:18:17.301Z,81543.19
2023-03-31T09:21:30.549Z,81545.03
2023-03-31T09:24:47.761Z,81545.72
2023-03-31T09:27:52.898Z,81539.34
2023-03-31T09:30:56.981Z,81524.19
2023-03-31T09:34:01.889Z,81598.69
2023-03-31T09:37:05.350Z,81550.63
2023-03-31T09:40:16.051Z,81608.34
2023-03-31T09:43:23.998Z,81671.72
2023-03-31T09:46:32.304Z,81600.41
2023-03-31T09:49:37.223Z,81606.91
2023-03-31T09:52:56.337Z,81628.00
2023-03-31T09:56:04.842Z,81629.44
2023-03-31T09:59:17.701Z,81582.06
2023-03-31T10:02:39.043Z,81607.09
2023-03-31T10:05:54.029Z,81576.91
2023-03-31T10:09:00.349Z,81526.09
2023-03-31T10:12:07.144Z,81527.81
2023-03-31T10:15:27.286Z,81556.75
2023-03-31T10:18:39.235Z,81597.66
2023-03-31T10:21:46.546Z,81482.28
2023-03-31T10:24:53.289Z,81484.84
2023-03-31T10:27:57.375Z,81678.78
2023-03-31T10:31:01.705Z,81671.53
2023-03-31T10:34:12.929Z,81687.69
2023-03-31T10:37:22.567Z,81685.31
2023-03-31T10:40:32.216Z,81679.19
2023-03-31T10:43:42.168Z,81732.53
2023-03-31T10:46:53.016Z,81754.16
2023-03-31T10:49:59.163Z,81776.59
2023-03-31T10:53:10.639Z,81747.84
2023-03-31T10:56:29.007Z,81727.28
2023-03-31T10:59:59.914Z,81725.44
2023-03-31T11:03:20.023Z,81696.94
2023-03-31T11:06:31.817Z,81690.34
2023-03-31T11:09:35.549Z,81686.31
2023-03-31T11:13:12.579Z,81610.25
2023-03-31T11:16:57.955Z,81640.72
2023-03-31T11:20:18.530Z,81693.56
2023-03-31T11:23:40.390Z,81733.94
2023-03-31T11:27:02.668Z,81717.66
2023-03-31T11:30:27.521Z,81772.28
2023-03-31T11:33:54.389Z,81717.25
2023-03-31T11:37:35.664Z,81729.94
2023-03-31T11:41:08.604Z,81739.63
2023-03-31T11:44:15.387Z,81742.19
2023-03-31T11:47:23.188Z,81737.47
2023-03-31T11:50:31.019Z,81751.97
2023-03-31T11:53:39.115Z,81750.69
2023-03-31T11:56:42.128Z,81766.50
2023-03-31T11:59:50.677Z,81720.06
2023-03-31T12:03:05.612Z,81760.16
2023-03-31T12:06:19.897Z,81761.87
2023-03-31T12:09:43.455Z,81731.41
2023-03-31T12:13:17.391Z,81741.84
2023-03-31T12:16:23.492Z,81760.25
2023-03-31T12:19:34.532Z,81749.03
2023-03-31T12:22:44.484Z,81733.91
2023-03-31T12:26:09.439Z,81745.41
2023-03-31T12:29:37.888Z,81711.56
2023-03-31T12:32:46.537Z,81739.69
2023-03-31T12:35:59.191Z,81729.28
2023-03-31T12:39:10.857Z,81731.69
2023-03-31T12:42:16.741Z,81702.13
2023-03-31T12:45:29.966Z,81659.66
2023-03-31T12:48:55.433Z,81685.25
2023-03-31T12:52:02.202Z,81683.31
2023-03-31T12:55:22.800Z,81683.03
2023-03-31T12:58:32.495Z,81687.03
2023-03-31T13:01:35.687Z,81705.50
2023-03-31T13:04:39.548Z,81695.09
2023-03-31T13:07:42.506Z,81709.63
2023-03-31T13:10:58.569Z,81668.03
2023-03-31T13:14:02.544Z,81690.56
2023-03-31T13:17:23.445Z,81706.50
2023-03-31T13:20:33.563Z,81704.19
2023-03-31T13:23:37.778Z,81701.88
2023-03-31T13:26:47.356Z,81677.97
2023-03-31T13:29:50.060Z,81700.41
2023-03-31T13:33:05.396Z,81704.72
2023-03-31T13:36:21.790Z,81729.22
2023-03-31T13:39:50.761Z,81728.56
2023-03-31T13:43:24.714Z,81739.03
2023-03-31T13:47:12.198Z,81735.81
2023-03-31T13:50:37.735Z,81747.97
2023-03-31T13:54:17.689Z,81752.75
2023-03-31T13:57:38.773Z,81744.00
2023-03-31T14:00:51.441Z,81749.03
2023-03-31T14:04:06.374Z,81737.56
2023-03-31T14:07:13.714Z,81740.28
2023-03-31T14:10:23.953Z,81742.50
2023-03-31T14:13:26.562Z,81740.94
2023-03-31T14:16:34.060Z,81717.75
2023-03-31T14:19:58.124Z,81719.62
2023-03-31T14:23:10.565Z,81734.62
2023-03-31T14:26:22.270Z,81717.19
2023-03-31T14:29:40.590Z,81670.16
2023-03-31T14:33:15.812Z,81677.41
2023-03-31T14:36:38.174Z,81690.22
2023-03-31T14:39:44.384Z,81679.03
2023-03-31T14:42:50.133Z,81676.13
2023-03-31T14:46:01.852Z,81696.69
2023-03-31T14:49:27.391Z,81687.41
2023-03-31T14:52:32.406Z,81693.59
2023-03-31T14:58:49.715Z,81696.06
2023-03-31T15:01:52.530Z,81708.09
2023-03-31T15:04:56.683Z,81726.63
2023-03-31T15:08:02.606Z,81747.06
2023-03-31T15:14:16.513Z,81755.94
2023-03-31T15:17:28.791Z,81767.16
2023-03-31T15:20:36.547Z,81761.47
2023-03-31T15:23:41.141Z,81750.62
2023-03-31T15:26:51.950Z,81751.94
2023-03-31T15:29:57.572Z,81754.44
2023-03-31T15:33:11.608Z,81772.00
2023-03-31T15:36:21.319Z,81782.41
2023-03-31T15:39:26.630Z,81792.25
2023-03-31T15:42:29.339Z,81775.63
2023-03-31T15:45:39.095Z,81789.00
2023-03-31T15:48:56.207Z,81800.94
2023-03-31T15:52:01.348Z,81801.00
2023-03-31T15:55:26.912Z,81806.00
2023-03-31T15:58:55.929Z,81804.22
2023-03-31T16:02:01.260Z,81812.25
2023-03-31T16:05:08.115Z,81815.75
2023-03-31T16:08:43.847Z,81839.34
2023-03-31T16:11:56.261Z,81852.09
2023-03-31T16:15:10.532Z,81853.91
2023-03-31T16:18:24.868Z,81853.97
2023-03-31T16:21:35.724Z,81845.81
2023-03-31T16:24:38.702Z,81852.50
2023-03-31T16:27:46.819Z,81855.47
2023-03-31T16:30:49.934Z,81880.91
2023-03-31T16:33:55.689Z,81887.47
2023-03-31T16:36:58.425Z,81898.41
2023-03-31T16:40:00.845Z,81911.16
2023-03-31T16:43:24.853Z,81928.59
2023-03-31T16:46:27.603Z,81933.34
2023-03-31T16:49:30.961Z,81946.25
2023-03-31T16:52:33.502Z,81950.84
2023-03-31T16:55:36.385Z,81947.69
2023-03-31T16:58:39.805Z,81958.81
2023-03-31T17:01:42.631Z,81962.09
2023-03-31T17:04:45.005Z,81960.47
2023-03-31T17:07:47.643Z,81973.22
2023-03-31T17:10:56.211Z,81974.00
2023-03-31T17:14:00.529Z,81973.19
2023-03-31T17:17:02.972Z,81986.00
2023-03-31T17:20:06.780Z,81998.78
2023-03-31T17:23:09.216Z,81995.44
2023-03-31T17:26:15.575Z,82000.41
2023-03-31T17:29:18.406Z,82010.00
2023-03-31T17:32:22.578Z,82001.06
2023-03-31T17:35:25.773Z,81997.13
2023-03-31T17:38:29.293Z,82007.44
2023-03-31T17:41:31.709Z,82005.25
2023-03-31T17:44:34.342Z,81998.66
2023-03-31T17:47:37.904Z,82005.28
2023-03-31T17:50:40.981Z,82013.22
2023-03-31T17:53:45.840Z,82033.75
2023-03-31T17:56:50.282Z,82037.78
2023-03-31T17:59:52.804Z,82046.47
2023-03-31T18:02:55.544Z,82038.53
2023-03-31T18:06:07.563Z,82037.06
2023-03-31T18:09:10.655Z,82033.66
2023-03-31T18:12:13.318Z,82052.97
2023-03-31T18:15:15.908Z,82048.03
2023-03-31T18:18:20.355Z,82062.41
2023-03-31T18:21:23.974Z,82050.50
2023-03-31T18:24:26.907Z,82045.72
2023-03-31T18:27:29.270Z,82046.47
2023-03-31T18:30:32.067Z,82041.69
2023-03-31T18:33:34.991Z,82052.78
2023-03-31T18:36:38.134Z,82049.72
2023-03-31T18:39:40.568Z,82057.59
2023-03-31T18:42:43.403Z,82051.22
2023-03-31T18:45:49.676Z,82049.06
2023-03-31T18:48:52.426Z,82054.38
2023-03-31T18:51:54.814Z,82059.37
2023-03-31T18:54:57.571Z,82060.75
2023-03-31T18:58:00.002Z,82068.88
2023-03-31T19:01:02.730Z,82082.94
2023-03-31T19:04:05.441Z,82090.94
2023-03-31T19:07:08.109Z,82097.31
2023-03-31T19:10:10.852Z,82104.44
2023-03-31T19:13:16.944Z,82114.94
2023-03-31T19:16:19.558Z,82128.37
2023-03-31T19:19:23.207Z,82138.69
2023-03-31T19:22:27.660Z,82143.44
2023-03-31T19:25:30.859Z,82149.03
2023-03-31T19:28:33.580Z,82156.19
2023-03-31T19:31:38.651Z,82168.91
2023-03-31T19:34:41.256Z,82173.69
2023-03-31T19:37:44.839Z,82175.31
2023-03-31T19:40:48.478Z,82202.34
2023-03-31T19:43:51.382Z,82202.38
2023-03-31T19:46:53.781Z,82205.56
2023-03-31T19:49:56.493Z,82215.09
2023-03-31T19:52:58.986Z,82231.81
2023-03-31T19:56:11.895Z,82235.81
2023-03-31T19:59:14.412Z,82235.00
2023-03-31T20:02:17.804Z,82247.75
2023-03-31T20:05:21.011Z,82253.31
2023-03-31T20:08:23.425Z,82254.94
2023-03-31T20:11:27.677Z,82264.44
2023-03-31T20:14:30.409Z,82263.69
2023-03-31T20:17:33.730Z,82270.84
2023-03-31T20:20:36.246Z,82275.62
2023-03-31T20:23:40.507Z,82280.44
2023-03-31T20:26:43.648Z,82285.13
2023-03-31T20:29:46.449Z,82274.06
2023-03-31T20:32:48.871Z,82272.47
2023-03-31T20:36:06.217Z,82274.91
2023-03-31T20:39:09.668Z,82263.94
2023-03-31T20:42:13.091Z,82267.78
2023-03-31T20:45:15.722Z,82268.72
2023-03-31T20:48:19.271Z,82262.25
2023-03-31T20:51:24.906Z,82283.62
2023-03-31T20:54:27.788Z,82285.25
2023-03-31T20:57:31.199Z,82277.41
2023-03-31T21:00:34.246Z,82285.31
2023-03-31T21:03:36.632Z,82294.06
2023-03-31T21:06:45.483Z,82296.44
2023-03-31T21:09:47.893Z,82293.31
2023-03-31T21:12:50.972Z,82291.69
2023-03-31T21:15:56.635Z,82291.69
2023-03-31T21:18:59.907Z,82290.91
2023-03-31T21:22:02.355Z,82286.97
2023-03-31T21:25:05.911Z,82290.19
2023-03-31T21:28:08.387Z,82289.41
2023-03-31T21:31:14.101Z,82290.16
2023-03-31T21:34:16.808Z,82287.87
2023-03-31T21:37:19.709Z,82291.88
2023-03-31T21:40:22.285Z,82281.47
2023-03-31T21:43:26.122Z,82285.41
2023-03-31T21:46:30.534Z,82282.22
2023-03-31T21:49:33.755Z,82283.84
2023-03-31T21:52:36.318Z,82285.41
2023-03-31T21:55:39.087Z,82283.06
2023-03-31T21:58:41.475Z,82287.78
2023-03-31T22:01:44.354Z,82284.00
2023-03-31T22:04:47.285Z,82291.94
2023-03-31T22:07:50.000Z,82294.94
2023-03-31T22:10:54.030Z,82290.28
2023-03-31T22:13:56.910Z,82300.47
2023-03-31T22:16:59.571Z,82301.25
2023-03-31T22:20:02.289Z,82298.25
2023-03-31T22:23:05.754Z,82293.38
2023-03-31T22:26:08.208Z,82299.88
2023-03-31T22:29:15.696Z,82306.19
2023-03-31T22:32:20.063Z,82302.19
2023-03-31T22:35:23.559Z,82304.63
2023-03-31T22:38:25.985Z,82301.50
2023-03-31T22:41:28.635Z,82297.41
2023-03-31T22:44:31.610Z,82303.06
2023-03-31T22:47:34.337Z,82301.34
2023-03-31T22:50:37.686Z,82301.44
2023-03-31T22:53:40.538Z,82309.31
2023-03-31T22:56:44.150Z,82309.31
2023-03-31T22:59:46.862Z,82311.66
2023-03-31T23:02:49.510Z,82309.41
2023-03-31T23:05:52.310Z,82304.59
2023-03-31T23:08:56.367Z,82309.34
2023-03-31T23:11:59.698Z,82307.81
2023-03-31T23:15:02.399Z,82301.56
2023-03-31T23:18:05.401Z,82312.53
2023-03-31T23:21:08.007Z,82317.28
2023-03-31T23:24:11.209Z,82311.91
2023-03-31T23:27:13.648Z,82312.69
2023-03-31T23:30:16.770Z,82318.91
2023-03-31T23:33:19.197Z,82315.75
2023-03-31T23:36:22.606Z,82319.03
2023-03-31T23:39:24.961Z,82323.75
2023-03-31T23:42:27.733Z,82322.12
2023-03-31T23:45:30.324Z,82325.22
2023-03-31T23:48:37.182Z,82330.75
2023-03-31T23:51:39.571Z,82328.50
2023-03-31T23:54:42.439Z,82334.69
2023-03-31T23:57:44.813Z,82345.16
